Ana Sayfa
METAR-TAF:

METAR-TAF

Havaalanları :

Antsiranana, Madagaskar

Enlem: 12-21S, Boylam: 049-18E, yükseklik: 114 m

Güncel hava durumu gözlemi

Rapor saat 09:00 UTC de 48 dakika önce yapıldı.
Rüzgar güneydoğudan 18 kt
Sıcaklık 31°C
Nem 49%
Basınç 1014 hPa
Görüş mesafesi 10 km veya daha fazla
2000 ft yükseklikte parçalı bulutlu

METAR: FMNA 240900Z 14018KT 9999 SCT020 31/19 Q1014

Saat: 12:48 (09:48 UTC)

Tahmin

Rapor saat 05:00 UTC de 4 saat ve 48 dakika önce yapıldı.
Ayın 24'si saat 06 UTC'den ayın 25'si saat 06 UTC'ye kadar geçerli Tahmin
Rüzgar güneydoğudan 14 kt
Görüş mesafesi 10 km veya daha fazla
2000 ft yükseklikte parçalı bulutlu

TAF: FMNA 240500Z 2406/2506 14014KT 9999 SCT020

4.000'den fazla havaalanı için hava durumu gözlemleri ve tahminleri (METAR ve TAF raporları).

Kullanılabilir istasyonlar harita üzerinde sarı ve kırmızı noktalarla gösterilir.

İstasyonun adını görmek için fareyi noktanın üzerinde gezdirin.

Sonrasında hava gözlem ve tahminlerini görmek için tıklayın.

Haritayı değiştirmek için: yaklaştırmak için siyah artı işaretli yeşil düğmeye ve uzaklaştırmak için de eksi işaretli düğmeye hızla tıklayın; bitişik haritalar için yeşil okları kullanın.


METAR-TAF: